Latest Observation

42 Stations

15 Minute Data | America/Los_Angeles
as of 8/30/26 8:32 PM PDT
Station Date Time Temp (°F) RH (%) Dew Pt (°F) Wind Spd (mph) Wind Dir (°) Wind Gust (mph) Latest Rain (In) Daily Rain (In) Daily Min Temp (°F) Daily Max Temp (°F) Daily Max Wind (mph)
Elk Mt. Farm 8/13/26 1500 85.6   7.4 - - - - - - - 51.4   1.1 85.6   7.4 -
Upper Lake 8/30/26 2030 75.0   6.0 38   10 47.6   0.6 2.9 WNW | 302 7.7   5.9 0.00 0.00 44.8   3.7 91.3   2.8 13.6   3.7
Scotts Valley 8/30/26 2030 69.8   3.6 47   3 48.5   1.6 0.7 WSW | 250 3.4   0.4 0.00 0.00 40.6   4.7 93.7   5.3 11.5   4.5
Scotts Valley-South (Bella Vista) 8/30/26 2030 68.5   2.0 48   4 48.0   4.1 0.6 WNW | 283 1.6   9.5 0.00 0.00 46.0   4.5 91.3   5.5 13.8   1.9
Kelseyville 8/30/26 2030 72.4   8.2 47   9 50.8   2.8 3.2 SSW | 197 5.0   0.4 0.00 0.00 45.3   3.8 90.9   3.7 16.0   0.0
Kelseyville Remote 8/30/26 2030 72.6   5.6 40   2 46.9   4.0 - - - 0.00 0.00 46.5   3.3 91.5   3.7 -
Kelseyville (Clark Drive) 8/30/26 2030 70.7   6.6 - - - - - 0.00 0.00 43.7   4.4 93.8   3.8 -
Kelsey Bench (Oaklea) 8/30/26 2030 72.6   6.4 42   3 48.1   4.0 3.4 SSW | 195 5.4   1.4 0.00 0.00 50.7   3.5 89.9   4.2 13.2   1.5
Smith Lane (Kelseyville-South) 8/30/26 2030 68.6   4.9 52   0 50.4   4.5 1.1 SSE | 159 3.8   0.0 0.00 0.00 43.7   4.7 92.5   4.3 12.7   3.4
Bell Hill-West 8/30/26 2030 73.4   5.7 50   2 53.7   4.4 1.1 SSE | 164 3.4   5.0 0.00 0.00 47.2   3.6 89.3   2.9 14.8   2.4
High Valley Ridgeline (Brassfield) 8/30/26 2030 71.8   4.9 44   3 48.5   2.5 8.2 WSW | 252 13.2   1.6 0.00 0.00 61.0   2.5 87.6   3.4 18.1   0.7
Wight Way (Adobe Creek) 8/30/26 2000 70.8   2.2 49   7 50.5   6.0 0.1 E | 97 1.0   10.4 0.00 0.00 43.4   3.8 97.8   6.3 13.0   2.6
Ridgeline Top (Brassfield) 8/30/26 2030 71.3   4.9 - - - - - - - 60.6   3.0 90.1   4.0 -
Ridgeline Low (Brassfield) 8/30/26 2030 72.9   4.4 - - - - - - - 55.1   0.1 88.8   4.6 -
Long Valley (Shannon) 6/29/26 1400 84.9   4.6 25   1 44.9   3.2 2.9 ENE | 75 10.2   0.4 0.00 0.00 46.4   0.4 86.9   6.5 13.7   1.8
High Valley Winery 8/30/26 2030 74.0   4.7 40   4 48.1   1.9 5.9 W | 261 13.0   2.4 0.00 0.00 44.0   3.9 89.9   4.1 18.1   2.4
Round Mtn Rd. 8/30/26 1145 81.7   3.0 - - - - - - - 49.8   2.2 84.0   4.6 -
Circle O 8/30/26 2030 72.6   6.6 - - - - - - - 47.8   3.1 89.3   3.1 -
Robertsbridge Vineyards 8/30/26 2030 67.0   3.9 55   1 50.2   4.4 - - - - - 46.0   6.3 92.0   4.4 -
Urgency Vineyard 8/30/26 2030 68.0   2.3 47   5 46.8   5.1 1.9 SW | 230 3.3   2.6 0.00 0.00 44.3   3.0 91.2   4.2 11.4   0.8
Red Hills (Beckstoffer) 8/30/26 2030 70.2   2.4 46   5 48.4   5.1 - - - 0.00 0.00 41.3   4.7 91.6   4.7 -
Winters (Shannon) 8/30/26 2030 66.2   0.2 48   9 46.0   5.6 1.8 SW | 228 3.0   1.8 0.00 0.00 41.3   8.1 89.3   3.1 13.4   2.3
Secret Pond (Shannon) 8/30/26 2030 69.4   2.8 43   5 46.2   5.8 3.0 WNW | 286 7.3   1.1 0.00 0.00 45.2   6.5 88.5   2.0 12.1   4.2
Rolling Knolls (Shannon) 8/30/26 2030 71.3   0.6 42   8 47.2   5.8 1.4 WSW | 248 5.5   4.6 0.00 0.00 44.8   7.6 91.1   3.4 8.8   8.7
Lower Lake 8/30/26 2030 73.5   3.2 42   4 48.7   5.8 3.2 SW | 232 7.7   6.0 0.00 0.00 51.9   5.0 89.9   3.0 12.8   5.5
Adamson Ranch 8/30/26 2030 68.0   2.5 55   18 51.0   8.0 0.6 W | 272 2.4   1.1 0.00 0.00 44.7   5.2 91.5   1.4 15.3   2.0
Middletown (Diamond D) 8/30/26 2030 69.8   0.6 54   4 52.5   1.6 2.0 N | 355 3.6   1.3 0.00 0.00 45.7   6.3 89.5   2.6 18.2   0.6
Middletown-West (Domaine Helena) 8/30/26 2030 70.8   0.8 47   5 49.4   2.5 4.3 SW | 214 6.4   2.1 0.00 0.00 43.4   6.8 90.2   2.6 21.8   2.3
Middletown-South 8/30/26 2030 71.4   0.7 45   4 49.0   1.8 1.9 S | 180 6.2   2.3 0.00 0.00 47.4   5.4 89.7   4.1 17.3   2.1
Jim Davis (Langtry) 8/30/26 2030 74.5   0.6 44   1 51.0   1.1 1.9 WSW | 239 4.6   4.1 0.00 0.00 53.2   4.1 90.2   2.2 16.2   1.5
Napa Valley Basin 8/30/26 2030 72.0   3.5 47   6 50.6   0.1 0.9 S | 176 2.3   1.2 0.00 0.00 43.1   4.0 92.4   2.8 14.3   1.2
Lower Bohn 8/30/26 2030 69.2   3.9 45   2 47.1   2.3 1.1 WNW | 284 3.1   2.3 0.00 0.00 42.2   4.4 92.0   3.4 14.8   3.6
Upper Bohn-North 8/30/26 2030 69.3   1.8 47   5 48.5   1.1 1.7 SSE | 152 3.5   0.2 0.00 0.00 50.2   4.8 92.4   2.0 13.9   1.0
Snell Peak Blk#9 8/30/26 2030 70.7   0.5 45   2 48.1   0.7 2.3 SW | 214 3.3   1.6 0.00 0.00 53.7   1.8 90.7   2.1 13.2   0.2
Coyote Lake West 8/30/26 2030 72.4   1.2 47   1 51.2   0.4 0.8 WSW | 241 2.3   1.0 0.00 0.00 51.0   5.6 90.5   2.2 14.2   0.4
Coyote Lake Northeast 8/30/26 2030 73.9   0.3 46   2 51.8   1.1 - - - - - 51.8   4.9 91.6   1.9 -
Coyote Lake East 8/30/26 2030 69.0   0.1 52   2 50.9   0.8 - - - - - 45.1   4.3 91.6   2.4 -
Morgan Valley 8/30/26 2030 72.8   2.1 47   4 51.5   4.4 1.9 NW | 305 3.6   12.7 0.00 0.00 63.5   4.1 85.8   2.5 14.5   4.7
Mine Pit North 8/30/26 2030 72.8   0.0 42   7 48.5   5.1 5.2 SW | 222 7.8   0.7 - - 57.6   1.6 91.2   3.5 19.0   1.9
Mine Pit South 8/30/26 2030 73.0   0.2 39   8 46.8   6.4 6.4 WSW | 244 9.7   1.1 0.00 0.00 58.7   1.2 92.1   5.1 22.7   1.9
Cow Mountain 8/30/26 2030 66.0   5.5 - - 9.9 WNW | 293 12.1   8.1 0.00 0.00 63.8   6.6 80.2   9.5 24.8   3.5
Ukiah-SE (Ruddick) 8/30/26 2030 73.3   6.1 37   8 45.5   0.3 5.3 NNW | 346 9.1   4.2 0.00 0.00 44.7   3.1 94.1   10.4 17.4   3.5
Max     75.0 55 53.7 9.9 - 13.2 0.00 0.00 63.8 97.8 24.8
Avg     71.1 46 49.1 2.8 - 5.5 0.00 - - - -
Min     66.0 37 45.5 0.1 - 1.0 0.00 0.00 40.6 80.2 8.8